Terminal Aerodrome Forecast
Issued by NWS

Home | Current Version | Previous Version | Graphics & Text | Print | Product List | Glossary On
Versions: 1 2 3 4 5 6 7 8 9 10 11 12 13 14 15 16 17 18 19 20 21 22 23 24
000
FTUS43 KABR 181700 AAB
TAFATY
TAF AMD
KATY 181707Z 1817/1912 18015G22KT P6SM BKN020
      TEMPO 1818/1820 SCT020
     FM182000 17017G23KT P6SM SCT025 SCT100
     FM190100 17015KT P6SM BKN250=

USA.gov is the U.S. government's official web portal to all federal, state and local government web resources and services.